Airfield :
LOGIN :

Register | Disclaimer

   EN    FR    IT 

 










Legend :    VFR   Marginal VFR   IFR   Intensive IFR   Very Intensive IFR
Visi :
Ceiling :
>= 8 km
>= 3000ft
5 to 8 km
1000 to 3000 ft
1500m to 5 km
500 to 1000 ft
800 to 1500m
200 to 500 ft
< 800m
< 200 ft
Symbols :   Thunderstorms  Fog  Heavy snow  Heavy precipitations  Wind > 20 kt
SIGMETs :     Misc.  Thunderstorms  Icing  Turbulence  Mountain Waves  Volcanic Ashes






- Airport Elevation : 779 ft
- IATA code : CMF


LFLB - Chambery / Aix-Les-Bains

CURRENT METAR :
  • 280500Z AUTO 11003KT 060V140 CAVOK 02/02 Q1016 TEMPO 4000 MIFG

EXPIRED METARs :
  • 280300Z AUTO VRB02KT CAVOK 02/01 Q1016 TEMPO 4000 MIFG
  • 280230Z AUTO 23003KT 140V290 9000 NSC 02/02 Q1017 TEMPO 4000 MIFG

TAF TAF LFLB
Valid from the 28 at 03:00 until the 29 at 03:00 UTC


280200Z 2803/2903 VRB03KT CAVOK
PROB30
TEMPO 2803/2807 4000 MIFG
BECMG 2805/2807 BKN060
TEMPO 2807/2816 RA BKN040
PROB30
TEMPO 2811/2816 4000 BKN014
PROB40
TEMPO 2822/2903 3000 -RA BR BKN014



MET'MAP, your aeronautical weather chart ! - Copyright ORBIFLY December 2007 - Disclaimer

ORBIFLY MET'MAP TEAM :

Programming & Development : Alexandra Zaïnal
Original concept : Baudouin d'Aumeries
Technical & hardware support : Manuel Goepfert
Assistance : Marc-Olivier Méhu




SOURCES & CREDITS :

   NOAA